地図

経路データ

SID SEASON NUMBER BASIN SUBBASIN NAME ISO_TIME NATURE LAT LON WMO_WIND WMO_PRES WMO_AGENCY TRACK_TYPE DIST2LAND LANDFALL IFLAG USA_AGENCY USA_ATCF_ID USA_LAT USA_LON USA_RECORD USA_STATUS USA_WIND USA_PRES USA_SSHS USA_R34_NE USA_R34_SE USA_R34_SW USA_R34_NW USA_R50_NE USA_R50_SE USA_R50_SW USA_R50_NW USA_R64_NE USA_R64_SE USA_R64_SW USA_R64_NW USA_POCI USA_ROCI USA_RMW USA_EYE TOKYO_LAT TOKYO_LON TOKYO_GRADE TOKYO_WIND TOKYO_PRES TOKYO_R50_DIR TOKYO_R50_LONG TOKYO_R50_SHORT TOKYO_R30_DIR TOKYO_R30_LONG TOKYO_R30_SHORT TOKYO_LAND CMA_LAT CMA_LON CMA_CAT CMA_WIND CMA_PRES HKO_LAT HKO_LON HKO_CAT HKO_WIND HKO_PRES NEWDELHI_LAT NEWDELHI_LON NEWDELHI_GRADE NEWDELHI_WIND NEWDELHI_PRES NEWDELHI_CI NEWDELHI_DP NEWDELHI_POCI REUNION_LAT REUNION_LON REUNION_TYPE REUNION_WIND REUNION_PRES REUNION_TNUM REUNION_CI REUNION_RMW REUNION_R34_NE REUNION_R34_SE REUNION_R34_SW REUNION_R34_NW REUNION_R50_NE REUNION_R50_SE REUNION_R50_SW REUNION_R50_NW REUNION_R64_NE REUNION_R64_SE REUNION_R64_SW REUNION_R64_NW BOM_LAT BOM_LON BOM_TYPE BOM_WIND BOM_PRES BOM_TNUM BOM_CI BOM_RMW BOM_R34_NE BOM_R34_SE BOM_R34_SW BOM_R34_NW BOM_R50_NE BOM_R50_SE BOM_R50_SW BOM_R50_NW BOM_R64_NE BOM_R64_SE BOM_R64_SW BOM_R64_NW BOM_ROCI BOM_POCI BOM_EYE BOM_POS_METHOD BOM_PRES_METHOD NADI_LAT NADI_LON NADI_CAT NADI_WIND NADI_PRES WELLINGTON_LAT WELLINGTON_LON WELLINGTON_WIND WELLINGTON_PRES DS824_LAT DS824_LON DS824_STAGE DS824_WIND DS824_PRES TD9636_LAT TD9636_LON TD9636_STAGE TD9636_WIND TD9636_PRES TD9635_LAT TD9635_LON TD9635_WIND TD9635_PRES TD9635_ROCI NEUMANN_LAT NEUMANN_LON NEUMANN_CLASS NEUMANN_WIND NEUMANN_PRES MLC_LAT MLC_LON MLC_CLASS MLC_WIND MLC_PRES USA_GUST BOM_GUST BOM_GUST_PER REUNION_GUST REUNION_GUST_PER USA_SEAHGT USA_SEARAD_NE USA_SEARAD_SE USA_SEARAD_SW USA_SEARAD_NW STORM_SPEED STORM_DIR
1865046S12094 1865 6 SI WA NOT_NAMED 1865-02-14 18:00:00 NR -12.2000 94.3000 main 1272 1272 __________O___ -1 -12.2000 94.3000 7 10 249
1865046S12094 1865 6 SI WA NOT_NAMED 1865-02-14 21:00:00 NR -12.3869 93.8007 main 1323 1323 __________P___ -1 -12.3869 93.8007 7 10 249
1865046S12094 1865 6 SI WA NOT_NAMED 1865-02-15 00:00:00 NR -12.5686 93.3208 main 1368 1368 __________P___ -1 -12.5686 93.3208 7 10 248
1865046S12094 1865 6 SI WA NOT_NAMED 1865-02-15 03:00:00 NR -12.7410 92.8804 main 1398 1398 __________P___ -1 -12.7410 92.8804 7 9 247
1865046S12094 1865 6 SI WA NOT_NAMED 1865-02-15 06:00:00 NR -12.9000 92.5000 main 1439 1439 __________O___ -1 -12.9000 92.5000 7 7 246
1865046S12094 1865 6 SI WA NOT_NAMED 1865-02-15 09:00:00 NR -13.0430 92.1922 main 1465 1465 __________P___ -1 -13.0430 92.1922 7 6 243
1865046S12094 1865 6 SI WA NOT_NAMED 1865-02-15 12:00:00 NR -13.1719 91.9397 main 1501 1501 __________P___ -1 -13.1719 91.9397 7 5 242
1865046S12094 1865 6 SI WA NOT_NAMED 1865-02-15 15:00:00 NR -13.2900 91.7173 main 1522 1522 __________P___ -1 -13.2900 91.7173 7 5 242
1865046S12094 1865 6 SI WA NOT_NAMED 1865-02-15 18:00:00 NR -13.4000 91.5000 main 1543 1543 __________O___ -1 -13.4000 91.5000 7 5 245
1865046S12094 1865 6 SI WA NOT_NAMED 1865-02-15 21:00:00 NR -13.4948 91.2700 main 1564 1564 __________P___ -1 -13.4948 91.2700 7 5 248
1865046S12094 1865 6 SI WA NOT_NAMED 1865-02-16 00:00:00 NR -13.5846 91.0371 main 1591 1591 __________P___ -1 -13.5846 91.0371 7 5 248
1865046S12094 1865 6 SI WA NOT_NAMED 1865-02-16 03:00:00 NR -13.6822 90.7856 main 1613 1613 __________P___ -1 -13.6822 90.7856 7 6 248
1865046S12094 1865 6 SI WA NOT_NAMED 1865-02-16 06:00:00 NR -13.8000 90.5000 main 1640 1640 __________O___ -1 -13.8000 90.5000 7 7 246
1865046S12094 1865 6 SI WA NOT_NAMED 1865-02-16 09:00:00 NR -13.9576 90.1570 main 1677 1677 __________P___ -1 -13.9576 90.1570 7 8 244
1865046S12094 1865 6 SI MM NOT_NAMED 1865-02-16 12:00:00 NR -14.1351 89.7802 main 1712 1712 __________P___ -1 -14.1351 89.7802 7 8 244
1865046S12094 1865 6 SI MM NOT_NAMED 1865-02-16 15:00:00 NR -14.3201 89.3882 main 1756 1756 __________P___ -1 -14.3201 89.3882 7 8 244
1865046S12094 1865 6 SI MM NOT_NAMED 1865-02-16 18:00:00 NR -14.5000 89.0000 main 1800 1800 __________O___ -1 -14.5000 89.0000 7 7 245
1865046S12094 1865 6 SI MM NOT_NAMED 1865-02-16 21:00:00 NR -14.6320 88.6906 main 1828 1828 __________P___ -1 -14.6320 88.6906 7 7 246
1865046S12094 1865 6 SI MM NOT_NAMED 1865-02-17 00:00:00 NR -14.7612 88.3810 main 1866 1866 __________P___ -1 -14.7612 88.3810 7 7 246
1865046S12094 1865 6 SI MM NOT_NAMED 1865-02-17 03:00:00 NR -14.9099 88.0309 main 1902 1902 __________P___ -1 -14.9099 88.0309 7 8 246
1865046S12094 1865 6 SI MM NOT_NAMED 1865-02-17 06:00:00 NR -15.1000 87.6000 main 1947 1947 __________O___ -1 -15.1000 87.6000 7 11 246
1865046S12094 1865 6 SI MM NOT_NAMED 1865-02-17 09:00:00 NR -15.3494 87.0284 main 2006 2006 __________P___ -1 -15.3494 87.0284 7 13 245
1865046S12094 1865 6 SI MM NOT_NAMED 1865-02-17 12:00:00 NR -15.6409 86.3752 main 2074 2074 __________P___ -1 -15.6409 86.3752 7 14 245
1865046S12094 1865 6 SI MM NOT_NAMED 1865-02-17 15:00:00 NR -15.9618 85.6844 main 2158 2158 __________P___ -1 -15.9618 85.6844 7 15 244
1865046S12094 1865 6 SI MM NOT_NAMED 1865-02-17 18:00:00 NR -16.3000 85.0000 main 2234 2234 __________O___ -1 -16.3000 85.0000 7 13 242
1865046S12094 1865 6 SI MM NOT_NAMED 1865-02-17 21:00:00 NR -16.5968 84.4516 main 2296 2296 __________P___ -1 -16.5968 84.4516 7 12 240
1865046S12094 1865 6 SI MM NOT_NAMED 1865-02-18 00:00:00 NR -16.9139 83.9076 main 2365 2365 __________P___ -1 -16.9139 83.9076 7 13 238
1865046S12094 1865 6 SI MM NOT_NAMED 1865-02-18 03:00:00 NR -17.2742 83.3100 main 2442 2442 __________P___ -1 -17.2742 83.3100 7 15 238
1865046S12094 1865 6 SI MM NOT_NAMED 1865-02-18 06:00:00 NR -17.7000 82.6000 main 2526 2517 __________O___ -1 -17.7000 82.6000 7 18 239
1865046S12094 1865 6 SI MM NOT_NAMED 1865-02-18 09:00:00 NR -18.2122 81.6783 main 2517 2403 __________P___ -1 -18.2122 81.6783 7 22 240
1865046S12094 1865 6 SI MM NOT_NAMED 1865-02-18 12:00:00 NR -18.7852 80.6416 main 2393 2280 __________P___ -1 -18.7852 80.6416 7 23 240
1865046S12094 1865 6 SI MM NOT_NAMED 1865-02-18 15:00:00 NR -19.3902 79.5588 main 2280 2169 __________P___ -1 -19.3902 79.5588 7 24 239
1865046S12094 1865 6 SI MM NOT_NAMED 1865-02-18 18:00:00 NR -20.0000 78.5000 main 2159 2051 __________O___ -1 -20.0000 78.5000 7 23 238
1865046S12094 1865 6 SI MM NOT_NAMED 1865-02-18 21:00:00 NR -20.6195 77.4885 main 2051 1956 __________P___ -1 -20.6195 77.4885 7 22 236
1865046S12094 1865 6 SI MM NOT_NAMED 1865-02-19 00:00:00 NR -21.2328 76.5227 main 1945 1863 __________P___ -1 -21.2328 76.5227 7 21 235
1865046S12094 1865 6 SI MM NOT_NAMED 1865-02-19 03:00:00 NR -21.8045 75.6451 main 1853 1784 __________P___ -1 -21.8045 75.6451 7 19 235
1865046S12094 1865 6 SI MM NOT_NAMED 1865-02-19 06:00:00 NR -22.3000 74.9000 main 1784 1726 __________O___ -1 -22.3000 74.9000 7 15 235
1865046S12094 1865 6 SI MM NOT_NAMED 1865-02-19 09:00:00 NR -22.6803 74.3146 main 1726 1688 __________P___ -1 -22.6803 74.3146 7 12 234
1865046S12094 1865 6 SI MM NOT_NAMED 1865-02-19 12:00:00 NR -22.9867 73.8659 main 1689 1652 __________P___ -1 -22.9867 73.8659 7 9 232
1865046S12094 1865 6 SI MM NOT_NAMED 1865-02-19 15:00:00 NR -23.2499 73.5094 main 1652 1627 __________P___ -1 -23.2499 73.5094 7 8 230
1865046S12094 1865 6 SI MM NOT_NAMED 1865-02-19 18:00:00 NR -23.5000 73.2000 main 1627 1601 __________O___ -1 -23.5000 73.2000 7 8 228
1865046S12094 1865 6 SI MM NOT_NAMED 1865-02-19 21:00:00 NR -23.7610 72.8996 main 1603 1577 __________P___ -1 -23.7610 72.8996 7 8 226
1865046S12094 1865 6 SI MM NOT_NAMED 1865-02-20 00:00:00 NR -24.0342 72.5999 main 1577 1555 __________P___ -1 -24.0342 72.5999 7 8 225
1865046S12094 1865 6 SI MM NOT_NAMED 1865-02-20 03:00:00 NR -24.3153 72.3003 main 1555 1534 __________P___ -1 -24.3153 72.3003 7 8 224
1865046S12094 1865 6 SI MM NOT_NAMED 1865-02-20 06:00:00 NR -24.6000 72.0000 main 1534 __________O___ -1 -24.6000 72.0000 7 8 224

IBTrACS Databaseについて

本データベースは、米国NOAAが公開する1842年以降の世界の熱帯低気圧のベストトラックデータアーカイブInternational Best Track Archive for Climate Stewardship (IBTrACS)を、ウェブで閲覧しやすい形式に変換したものです。

最終更新日:2021-12-06